createdAt,value
2022-10-19T00:02:03.050Z,99972.63
2022-10-19T00:04:31.622Z,99972.63
2022-10-19T00:07:00.281Z,99974.38
2022-10-19T00:09:29.280Z,99970.16
2022-10-19T00:11:58.002Z,99973.06
2022-10-19T00:14:28.157Z,99976.66
2022-10-19T00:16:58.217Z,99971.28
2022-10-19T00:19:29.074Z,99977.97
2022-10-19T00:21:57.675Z,99980.13
2022-10-19T00:24:26.274Z,99989.28
2022-10-19T00:26:54.878Z,99980.84
2022-10-19T00:29:23.594Z,99983.16
2022-10-19T00:31:54.832Z,99972.88
2022-10-19T00:34:23.502Z,99982.44
2022-10-19T00:36:52.304Z,99984.56
2022-10-19T00:39:20.954Z,99982.06
2022-10-19T00:41:50.151Z,99987.09
2022-10-19T00:45:01.082Z,99985.09
2022-10-19T00:47:32.976Z,99986.50
2022-10-19T00:50:01.925Z,99985.91
2022-10-19T00:52:31.730Z,99989.50
2022-10-19T00:55:02.110Z,99985.75
2022-10-19T00:57:32.828Z,99981.75
2022-10-19T01:00:06.319Z,99981.38
2022-10-19T01:02:36.970Z,99985.63
2022-10-19T01:05:07.560Z,99978.69
2022-10-19T01:07:36.466Z,99987.88
2022-10-19T01:10:07.210Z,99977.41
2022-10-19T01:13:08.106Z,99978.91
2022-10-19T01:15:49.963Z,99975.25
2022-10-19T01:18:30.248Z,99968.00
2022-10-19T01:21:22.058Z,99960.25
2022-10-19T01:24:49.328Z,99965.88
2022-10-19T01:27:45.119Z,99963.03
2022-10-19T01:30:23.636Z,99960.22
2022-10-19T01:33:08.724Z,99963.72
2022-10-19T01:35:46.770Z,99960.94
2022-10-19T01:38:35.209Z,99969.06
2022-10-19T01:41:17.313Z,99965.38
2022-10-19T01:43:56.723Z,99957.91
2022-10-19T01:46:34.731Z,99964.16
2022-10-19T01:49:13.625Z,99966.25
2022-10-19T01:51:49.594Z,99959.31
2022-10-19T01:54:22.683Z,99955.81
2022-10-19T01:56:56.325Z,99958.28
2022-10-19T01:59:27.213Z,99957.66
2022-10-19T02:01:59.254Z,99961.66
2022-10-19T02:04:28.317Z,99959.63
2022-10-19T02:06:58.130Z,99962.69
2022-10-19T02:09:26.785Z,99969.38
2022-10-19T02:12:01.056Z,99962.72
2022-10-19T02:14:34.634Z,99971.84
2022-10-19T02:17:11.301Z,99970.38
2022-10-19T02:19:40.301Z,99975.00
2022-10-19T02:22:10.151Z,99959.22
2022-10-19T02:24:38.904Z,99963.19
2022-10-19T02:27:10.145Z,99955.59
2022-10-19T02:29:40.931Z,99962.00
2022-10-19T02:32:12.360Z,99962.88
2022-10-19T02:34:41.760Z,99957.03
2022-10-19T02:37:10.600Z,99956.81
2022-10-19T02:39:41.173Z,99962.47
2022-10-19T02:42:16.490Z,99960.00
2022-10-19T02:44:56.413Z,99958.19
2022-10-19T02:47:33.475Z,99957.16
2022-10-19T02:50:05.701Z,99962.50
2022-10-19T02:52:34.345Z,99964.78
2022-10-19T02:55:02.923Z,99965.56
2022-10-19T02:57:32.724Z,99967.38
2022-10-19T03:00:01.730Z,99965.28
2022-10-19T03:02:31.784Z,99965.47
2022-10-19T03:05:00.406Z,99963.22
2022-10-19T03:07:29.028Z,99959.91
2022-10-19T03:09:57.614Z,99950.81
2022-10-19T03:12:26.252Z,99953.28
2022-10-19T03:14:54.961Z,99950.81
2022-10-19T03:17:23.602Z,99941.91
2022-10-19T03:19:53.936Z,99948.66
2022-10-19T03:22:22.659Z,99945.75
2022-10-19T03:24:51.299Z,99940.91
2022-10-19T03:27:19.941Z,99935.09
2022-10-19T03:29:48.493Z,99939.41
2022-10-19T03:32:17.160Z,99944.78
2022-10-19T03:34:45.930Z,99938.00
2022-10-19T03:37:16.104Z,99936.31
2022-10-19T03:39:44.810Z,99945.56
2022-10-19T03:42:13.395Z,99946.44
2022-10-19T03:44:42.066Z,99952.41
2022-10-19T03:47:10.778Z,99954.44
2022-10-19T03:49:40.345Z,99951.94
2022-10-19T03:52:10.187Z,99960.00
2022-10-19T03:54:41.634Z,99967.22
2022-10-19T03:57:10.520Z,99963.53
2022-10-19T03:59:39.147Z,99971.31
2022-10-19T04:02:07.866Z,99965.50
2022-10-19T04:04:36.960Z,99959.09
2022-10-19T04:07:05.548Z,99971.06
2022-10-19T04:09:34.170Z,99975.78
2022-10-19T04:12:05.181Z,99967.91
2022-10-19T04:14:52.629Z,99969.53
2022-10-19T04:17:22.437Z,99962.06
2022-10-19T04:19:50.997Z,99967.03
2022-10-19T04:22:19.632Z,99972.38
2022-10-19T04:24:48.207Z,99970.31
2022-10-19T04:27:18.246Z,99965.38
2022-10-19T04:29:47.018Z,99973.22
2022-10-19T04:32:15.705Z,99972.38
2022-10-19T04:34:44.944Z,99972.63
2022-10-19T04:37:13.612Z,99978.19
2022-10-19T04:39:43.432Z,99986.47
2022-10-19T04:42:12.347Z,99985.25
2022-10-19T04:44:42.952Z,99987.75
2022-10-19T04:47:11.918Z,99985.66
2022-10-19T04:49:40.904Z,99987.28
2022-10-19T04:52:09.707Z,99987.28
2022-10-19T04:54:38.304Z,99987.28
2022-10-19T04:57:07.291Z,99982.38
2022-10-19T04:59:36.325Z,99982.78
2022-10-19T05:02:06.583Z,99986.28
2022-10-19T05:04:36.388Z,99984.44
2022-10-19T05:07:05.247Z,99983.84
2022-10-19T05:09:33.936Z,99984.88
2022-10-19T05:12:02.511Z,99990.84
2022-10-19T05:14:36.719Z,99991.88
2022-10-19T05:17:09.178Z,99986.53
2022-10-19T05:19:37.973Z,99989.81
2022-10-19T05:22:07.906Z,99990.63
2022-10-19T05:24:36.583Z,99989.22
2022-10-19T05:27:05.525Z,99994.81
2022-10-19T05:29:34.756Z,99990.28
2022-10-19T05:32:03.390Z,99991.09
2022-10-19T05:34:33.386Z,99993.34
2022-10-19T05:37:01.979Z,99990.25
2022-10-19T05:39:31.939Z,99992.34
2022-10-19T05:42:01.177Z,99992.34
2022-10-19T05:44:30.938Z,99985.31
2022-10-19T05:47:00.639Z,99994.59
2022-10-19T05:49:29.247Z,99997.72
2022-10-19T05:51:59.353Z,100000.41
2022-10-19T05:54:28.709Z,100007.19
2022-10-19T05:56:57.577Z,100008.06
2022-10-19T05:59:26.167Z,99998.38
2022-10-19T06:01:54.897Z,100000.59
2022-10-19T06:04:23.660Z,100005.56
2022-10-19T06:06:52.319Z,100003.06
2022-10-19T06:09:22.411Z,100010.94
2022-10-19T06:11:50.984Z,100008.88
2022-10-19T06:14:19.557Z,100012.38
2022-10-19T06:16:48.317Z,100010.94
2022-10-19T06:19:16.957Z,100017.50
2022-10-19T06:21:47.216Z,100012.97
2022-10-19T06:24:16.278Z,100018.34
2022-10-19T06:26:46.576Z,100023.69
2022-10-19T06:29:15.122Z,100031.09
2022-10-19T06:31:43.746Z,100023.06
2022-10-19T06:34:12.460Z,100032.34
2022-10-19T06:36:41.044Z,100035.00
2022-10-19T06:39:09.639Z,100027.56
2022-10-19T06:41:38.252Z,100035.78
2022-10-19T06:44:23.735Z,100030.19
2022-10-19T06:46:52.370Z,100029.38
2022-10-19T06:49:20.996Z,100028.94
2022-10-19T06:51:49.548Z,100034.69
2022-10-19T06:54:18.161Z,100037.19
2022-10-19T06:56:46.770Z,100038.19
2022-10-19T06:59:17.672Z,100033.69
2022-10-19T07:01:47.700Z,100037.59
2022-10-19T07:04:16.406Z,100042.16
2022-10-19T07:06:44.982Z,100038.59
2022-10-19T07:09:13.574Z,100040.16
2022-10-19T07:11:45.988Z,100041.22
2022-10-19T07:14:15.557Z,100049.31
2022-10-19T07:16:44.152Z,100044.94
2022-10-19T07:19:14.180Z,100051.13
2022-10-19T07:21:43.902Z,100050.38
2022-10-19T07:24:12.858Z,100047.53
2022-10-19T07:26:41.926Z,100055.09
2022-10-19T07:29:10.602Z,100053.28
2022-10-19T07:31:39.340Z,100051.13
2022-10-19T07:34:07.972Z,100053.06
2022-10-19T07:36:38.093Z,100059.25
2022-10-19T07:39:08.660Z,100055.69
2022-10-19T07:41:37.348Z,100059.78
2022-10-19T07:44:07.473Z,100054.47
2022-10-19T07:46:38.738Z,100062.31
2022-10-19T07:49:11.324Z,100059.72
2022-10-19T07:51:42.294Z,100070.94
2022-10-19T07:54:10.976Z,100074.22
2022-10-19T07:56:39.655Z,100068.66
2022-10-19T07:59:08.385Z,100066.44
2022-10-19T08:01:43.159Z,100074.22
2022-10-19T08:07:01.744Z,100065.44
2022-10-19T08:12:18.950Z,100083.59
2022-10-19T08:14:48.131Z,100080.91
2022-10-19T08:17:17.896Z,100083.84
2022-10-19T08:19:47.303Z,100079.47
2022-10-19T08:22:17.402Z,100079.09
2022-10-19T08:24:46.071Z,100080.09
2022-10-19T08:27:15.635Z,100085.88
2022-10-19T08:29:44.269Z,100080.28
2022-10-19T08:32:13.026Z,100088.34
2022-10-19T08:34:41.854Z,100090.22
2022-10-19T08:37:20.173Z,100087.09
2022-10-19T08:40:00.551Z,100083.31
2022-10-19T08:42:47.872Z,100082.06
2022-10-19T08:45:39.041Z,100077.69
2022-10-19T08:48:36.758Z,100079.09
2022-10-19T08:51:09.447Z,100084.91
2022-10-19T08:53:52.770Z,100078.94
2022-10-19T08:56:49.903Z,100076.47
2022-10-19T08:59:34.919Z,100070.44
2022-10-19T09:02:15.356Z,100076.41
2022-10-19T09:04:49.572Z,100084.31
2022-10-19T09:07:28.339Z,100075.19
2022-10-19T09:10:05.193Z,100079.38
2022-10-19T09:12:48.261Z,100074.06
2022-10-19T09:15:21.788Z,100085.41
2022-10-19T09:17:50.457Z,100077.84
2022-10-19T09:20:24.184Z,100076.94
2022-10-19T09:23:06.720Z,100077.78
2022-10-19T09:25:40.839Z,100066.97
2022-10-19T09:28:39.796Z,100074.94
2022-10-19T09:31:16.847Z,100086.66
2022-10-19T09:33:53.806Z,100083.53
2022-10-19T09:36:39.338Z,100078.53
2022-10-19T09:39:15.090Z,100087.78
2022-10-19T09:41:48.689Z,100082.78
2022-10-19T09:44:19.449Z,100079.06
2022-10-19T09:46:56.067Z,100081.09
2022-10-19T09:49:42.696Z,100088.50
2022-10-19T09:52:35.817Z,100080.47
2022-10-19T09:55:11.501Z,100082.13
2022-10-19T09:57:44.203Z,100086.00
2022-10-19T10:00:23.507Z,100084.94
2022-10-19T10:02:54.264Z,100085.41
2022-10-19T10:05:33.179Z,100090.56
2022-10-19T10:08:02.463Z,100086.06
2022-10-19T10:13:28.754Z,100083.78
2022-10-19T10:16:05.003Z,100080.78
2022-10-19T10:18:40.485Z,100086.41
2022-10-19T10:21:25.290Z,100091.03
2022-10-19T10:24:06.714Z,100085.88
2022-10-19T10:26:41.751Z,100086.00
2022-10-19T10:29:22.982Z,100082.72
2022-10-19T10:31:57.001Z,100081.59
2022-10-19T10:34:50.223Z,100086.94
2022-10-19T10:37:29.367Z,100086.94
2022-10-19T10:40:03.486Z,100081.41
2022-10-19T10:42:42.095Z,100082.88
2022-10-19T10:45:21.522Z,100076.75
2022-10-19T10:47:52.458Z,100084.22
2022-10-19T10:50:26.074Z,100083.78
2022-10-19T10:53:04.579Z,100087.44
2022-10-19T10:55:35.280Z,100089.75
2022-10-19T10:58:20.705Z,100092.00
2022-10-19T11:00:53.033Z,100093.50
2022-10-19T11:03:29.031Z,100096.09
2022-10-19T11:06:00.691Z,100087.44
2022-10-19T11:08:34.926Z,100091.78
2022-10-19T11:11:16.308Z,100102.06
2022-10-19T11:13:53.812Z,100100.97
2022-10-19T11:16:30.209Z,100099.53
2022-10-19T11:19:12.524Z,100110.34
2022-10-19T11:21:51.138Z,100094.44
2022-10-19T11:24:34.172Z,100092.59
2022-10-19T11:27:20.845Z,100092.66
2022-10-19T11:30:08.385Z,100093.72
2022-10-19T11:33:02.789Z,100085.09
2022-10-19T11:35:52.911Z,100083.47
2022-10-19T11:38:41.683Z,100089.38
2022-10-19T11:41:28.466Z,100087.53
2022-10-19T11:44:30.607Z,100080.94
2022-10-19T11:47:25.332Z,100087.44
2022-10-19T11:50:10.580Z,100080.94
2022-10-19T11:52:52.542Z,100076.09
2022-10-19T11:55:38.788Z,100075.00
2022-10-19T11:58:34.690Z,100082.59
2022-10-19T12:01:22.887Z,100075.19
2022-10-19T12:04:29.729Z,100083.97
2022-10-19T12:07:21.101Z,100070.13
2022-10-19T12:10:04.687Z,100069.53
2022-10-19T12:12:37.263Z,100062.88
2022-10-19T12:15:26.248Z,100063.16
2022-10-19T12:18:03.238Z,100059.72
2022-10-19T12:20:41.256Z,100060.91
2022-10-19T12:23:29.262Z,100055.09
2022-10-19T12:26:03.653Z,100058.22
2022-10-19T12:28:36.588Z,100044.56
2022-10-19T12:31:07.834Z,100056.00
2022-10-19T12:33:50.838Z,100053.88
2022-10-19T12:36:34.188Z,100060.03
2022-10-19T12:39:19.232Z,100055.47
2022-10-19T12:42:01.308Z,100060.22
2022-10-19T12:44:58.556Z,100061.53
2022-10-19T12:47:28.431Z,100054.66
2022-10-19T12:50:00.350Z,100058.41
2022-10-19T12:52:45.616Z,100056.41
2022-10-19T12:55:30.557Z,100055.09
2022-10-19T12:58:05.577Z,100054.78
2022-10-19T13:00:38.758Z,100052.09
2022-10-19T13:03:16.926Z,100051.50
2022-10-19T13:05:58.644Z,100046.56
2022-10-19T13:08:33.009Z,100035.97
2022-10-19T13:11:14.660Z,100039.84
2022-10-19T13:14:00.831Z,100039.84
2022-10-19T13:17:02.974Z,100035.13
2022-10-19T13:19:31.695Z,100038.56
2022-10-19T13:22:28.185Z,100040.28
2022-10-19T13:25:33.837Z,100036.50
2022-10-19T13:28:39.452Z,100039.03
2022-10-19T13:31:27.383Z,100032.75
2022-10-19T13:33:57.729Z,100032.31
2022-10-19T13:36:27.768Z,100034.00
2022-10-19T13:39:13.951Z,100031.19
2022-10-19T13:41:57.170Z,100030.44
2022-10-19T13:44:35.634Z,100033.28
2022-10-19T13:47:35.801Z,100027.06
2022-10-19T13:50:27.847Z,100031.78
2022-10-19T13:53:36.189Z,100029.25
2022-10-19T13:56:40.765Z,100032.09
2022-10-19T13:59:47.437Z,100036.44
2022-10-19T14:03:01.967Z,100029.19
2022-10-19T14:06:25.989Z,100019.69
2022-10-19T14:09:42.919Z,100026.13
2022-10-19T14:12:24.405Z,100022.41
2022-10-19T14:14:54.513Z,100016.06
2022-10-19T14:17:27.405Z,100020.06
2022-10-19T14:20:00.011Z,100016.38
2022-10-19T14:22:33.599Z,100014.75
2022-10-19T14:25:17.390Z,100020.50
2022-10-19T14:27:48.299Z,100012.06
2022-10-19T14:30:24.933Z,100016.38
2022-10-19T14:32:58.059Z,100019.22
2022-10-19T14:35:37.534Z,100019.50
2022-10-19T14:38:09.487Z,100009.59
2022-10-19T14:40:42.580Z,100008.56
2022-10-19T14:43:23.496Z,100008.19
2022-10-19T14:46:16.150Z,100016.81
2022-10-19T14:48:47.377Z,100016.81
2022-10-19T14:51:33.220Z,100018.50
2022-10-19T14:54:08.752Z,100016.81
2022-10-19T14:56:49.324Z,100015.19
2022-10-19T14:59:26.258Z,100017.06
2022-10-19T15:01:57.900Z,100008.19
2022-10-19T15:04:31.850Z,100009.81
2022-10-19T15:07:06.125Z,100004.44
2022-10-19T15:09:47.721Z,100003.47
2022-10-19T15:12:21.338Z,100006.38
2022-10-19T15:14:50.988Z,100004.66
2022-10-19T15:17:28.453Z,99996.84
2022-10-19T15:20:01.137Z,99996.09
2022-10-19T15:22:46.417Z,100004.00
2022-10-19T15:25:35.500Z,100006.06
2022-10-19T15:28:37.433Z,99999.13
2022-10-19T15:31:19.113Z,99993.41
2022-10-19T15:33:52.138Z,100001.00
2022-10-19T15:36:23.605Z,100004.91
2022-10-19T15:39:33.103Z,99995.31
2022-10-19T15:47:34.315Z,99993.47
2022-10-19T15:50:03.393Z,99981.38
2022-10-19T15:52:33.752Z,99976.88
2022-10-19T15:55:02.038Z,99975.31
2022-10-19T15:57:33.553Z,99975.91
2022-10-19T16:00:12.263Z,99981.88
2022-10-19T16:02:40.672Z,99974.50
2022-10-19T16:09:00.566Z,99984.44
2022-10-19T16:11:31.013Z,99982.75
2022-10-19T16:13:59.667Z,99975.75
2022-10-19T16:16:32.044Z,99986.56
2022-10-19T16:19:02.618Z,99979.16
2022-10-19T16:21:34.162Z,99987.84
2022-10-19T16:24:05.124Z,99992.66
2022-10-19T16:26:34.460Z,99990.03
2022-10-19T16:29:03.889Z,99992.72
2022-10-19T16:31:33.101Z,99988.38
2022-10-19T16:34:01.958Z,99999.59
2022-10-19T16:36:31.202Z,99991.72
2022-10-19T16:39:04.923Z,99985.59
2022-10-19T16:41:34.216Z,99993.06
2022-10-19T16:44:03.598Z,99978.19
2022-10-19T16:46:32.610Z,99992.34
2022-10-19T16:49:01.760Z,100000.25
2022-10-19T16:51:37.311Z,100001.56
2022-10-19T16:54:10.924Z,99992.06
2022-10-19T16:56:45.943Z,99998.88
2022-10-19T16:59:17.515Z,100005.81
2022-10-19T17:01:48.243Z,100007.53
2022-10-19T17:04:18.555Z,100007.75
2022-10-19T17:06:47.990Z,100008.97
2022-10-19T17:12:09.251Z,100018.28
2022-10-19T17:14:40.941Z,100009.66
2022-10-19T17:17:11.880Z,100014.25
2022-10-19T17:19:41.315Z,100015.97
2022-10-19T17:22:10.954Z,100021.34
2022-10-19T17:24:41.913Z,100024.03
2022-10-19T17:27:11.640Z,100028.97
2022-10-19T17:29:40.872Z,100024.63
2022-10-19T17:32:11.098Z,100021.78
2022-10-19T17:34:40.336Z,100032.09
2022-10-19T17:37:13.341Z,100037.03
2022-10-19T17:39:48.224Z,100032.13
2022-10-19T17:42:18.029Z,100034.56
2022-10-19T17:44:47.639Z,100039.50
2022-10-19T17:47:16.240Z,100042.78
2022-10-19T17:49:46.518Z,100047.31
2022-10-19T17:52:20.113Z,100045.66
2022-10-19T17:55:11.277Z,100050.59
2022-10-19T17:57:41.033Z,100040.91
2022-10-19T18:00:12.827Z,100042.34
2022-10-19T18:02:41.707Z,100043.16
2022-10-19T18:05:12.305Z,100047.69
2022-10-19T18:07:44.870Z,100050.34
2022-10-19T18:10:15.806Z,100052.41
2022-10-19T18:12:45.744Z,100059.16
2022-10-19T18:15:15.289Z,100055.03
2022-10-19T18:17:44.461Z,100058.13
2022-10-19T18:20:15.692Z,100051.28
2022-10-19T18:22:47.449Z,100060.53
2022-10-19T18:25:42.541Z,100050.88
2022-10-19T18:28:15.027Z,100058.66
2022-10-19T18:30:45.361Z,100055.88
2022-10-19T18:33:14.717Z,100064.66
2022-10-19T18:35:43.646Z,100061.31
2022-10-19T18:38:13.210Z,100054.75
2022-10-19T18:40:44.976Z,100051.28
2022-10-19T18:43:15.128Z,100041.66
2022-10-19T18:45:56.809Z,100035.25
2022-10-19T18:48:28.984Z,100036.88
2022-10-19T18:50:58.872Z,100029.94
2022-10-19T18:53:29.082Z,100032.03
2022-10-19T18:56:05.733Z,100034.16
2022-10-19T18:58:35.159Z,100036.16
2022-10-19T19:01:06.918Z,100032.03
2022-10-19T19:03:37.086Z,100029.41
2022-10-19T19:06:10.116Z,100029.34
2022-10-19T19:11:21.511Z,100023.97
2022-10-19T19:13:52.880Z,100024.75
2022-10-19T19:16:22.528Z,100018.91
2022-10-19T19:18:52.797Z,100017.72
2022-10-19T19:21:27.055Z,100018.03
2022-10-19T19:23:59.106Z,100015.47
2022-10-19T19:26:33.369Z,100022.75
2022-10-19T19:29:02.836Z,100020.59
2022-10-19T19:31:33.091Z,100019.16
2022-10-19T19:34:03.600Z,100023.47
2022-10-19T19:36:33.473Z,100013.50
2022-10-19T19:39:03.232Z,100027.66
2022-10-19T19:41:34.362Z,100024.94
2022-10-19T19:44:03.345Z,100023.16
2022-10-19T19:46:32.545Z,100033.22
2022-10-19T19:49:03.812Z,100026.69
2022-10-19T19:51:34.536Z,100027.06
2022-10-19T19:54:03.764Z,100022.50
2022-10-19T19:56:34.582Z,100033.03
2022-10-19T19:59:04.605Z,100024.28
2022-10-19T20:01:33.861Z,100020.28
2022-10-19T20:06:39.325Z,100028.09
2022-10-19T20:09:09.055Z,100035.69
2022-10-19T20:11:42.419Z,100029.94
2022-10-19T20:14:13.467Z,100035.53
2022-10-19T20:16:42.552Z,100036.84
2022-10-19T20:19:14.187Z,100040.63
2022-10-19T20:21:43.837Z,100043.28
2022-10-19T20:24:13.731Z,100044.59
2022-10-19T20:26:44.068Z,100044.44
2022-10-19T20:29:13.174Z,100041.78
2022-10-19T20:31:41.810Z,100046.09
2022-10-19T20:34:14.052Z,100050.41
2022-10-19T20:36:42.912Z,100047.50
2022-10-19T20:39:12.204Z,100049.91
2022-10-19T20:41:40.888Z,100051.00
2022-10-19T20:44:10.974Z,100046.75
2022-10-19T20:46:39.607Z,100047.59
2022-10-19T20:49:08.371Z,100047.50
2022-10-19T20:51:38.044Z,100054.25
2022-10-19T20:54:09.393Z,100048.47
2022-10-19T20:56:41.109Z,100053.50
2022-10-19T20:59:17.932Z,100051.94
2022-10-19T21:01:51.510Z,100052.66
2022-10-19T21:04:20.159Z,100051.28
2022-10-19T21:06:52.234Z,100050.81
2022-10-19T21:09:23.846Z,100048.44
2022-10-19T21:11:53.451Z,100046.34
2022-10-19T21:14:28.261Z,100047.78
2022-10-19T21:16:59.771Z,100039.53
2022-10-19T21:19:31.012Z,100042.28
2022-10-19T21:22:02.841Z,100038.72
2022-10-19T21:24:34.137Z,100036.16
2022-10-19T21:27:05.199Z,100030.56
2022-10-19T21:29:36.014Z,100039.91
2022-10-19T21:32:05.236Z,100026.69
2022-10-19T21:34:34.350Z,100028.69
2022-10-19T21:37:02.932Z,100033.84
2022-10-19T21:39:31.532Z,100022.28
2022-10-19T21:42:00.114Z,100012.38
2022-10-19T21:44:28.791Z,100015.50
2022-10-19T21:46:58.752Z,100013.09
2022-10-19T21:49:27.407Z,100014.03
2022-10-19T21:51:57.009Z,100007.31
2022-10-19T21:54:27.343Z,100000.16
2022-10-19T21:56:57.737Z,100005.97
2022-10-19T21:59:26.804Z,100006.97
2022-10-19T22:01:56.490Z,100004.50
2022-10-19T22:04:26.772Z,100002.66
2022-10-19T22:06:55.437Z,99997.97
2022-10-19T22:09:24.074Z,99987.06
2022-10-19T22:11:52.706Z,99994.75
2022-10-19T22:14:21.355Z,99987.97
2022-10-19T22:16:49.938Z,99980.53
2022-10-19T22:19:20.593Z,99977.31
2022-10-19T22:21:50.662Z,99979.69
2022-10-19T22:24:19.322Z,99972.72
2022-10-19T22:26:50.813Z,99964.88
2022-10-19T22:29:20.071Z,99965.75
2022-10-19T22:31:48.796Z,99961.44
2022-10-19T22:34:19.042Z,99960.81
2022-10-19T22:36:49.332Z,99962.06
2022-10-19T22:39:18.863Z,99963.22
2022-10-19T22:41:47.535Z,99962.16
2022-10-19T22:44:16.123Z,99973.69
2022-10-19T22:46:44.704Z,99967.19
2022-10-19T22:49:13.489Z,99968.22
2022-10-19T22:51:42.195Z,99961.97
2022-10-19T22:54:12.279Z,99956.75
2022-10-19T22:56:41.541Z,99965.53
2022-10-19T22:59:11.053Z,99964.94
2022-10-19T23:01:39.808Z,99964.34
2022-10-19T23:04:08.573Z,99954.19
2022-10-19T23:06:37.301Z,99963.63
2022-10-19T23:09:06.013Z,99953.72
2022-10-19T23:11:36.106Z,99952.66
2022-10-19T23:14:05.032Z,99950.31
2022-10-19T23:16:33.595Z,99947.06
2022-10-19T23:19:02.310Z,99945.59
2022-10-19T23:21:30.934Z,99948.94
2022-10-19T23:23:59.476Z,99947.13
2022-10-19T23:26:29.278Z,99949.72
2022-10-19T23:28:59.250Z,99956.06
2022-10-19T23:31:30.399Z,99947.59
2022-10-19T23:33:59.023Z,99952.91
2022-10-19T23:36:30.082Z,99948.56
2022-10-19T23:38:59.460Z,99947.66
2022-10-19T23:41:28.340Z,99949.50
2022-10-19T23:43:58.354Z,99941.94
2022-10-19T23:46:27.060Z,99942.00
2022-10-19T23:48:55.612Z,99943.78
2022-10-19T23:51:24.898Z,99935.22
2022-10-19T23:53:54.154Z,99927.03
2022-10-19T23:56:25.457Z,99930.66
2022-10-19T23:58:55.197Z,99932.94
